95F weather

Cleveland Municipal Airport
Cleveland, Oklahoma, United States

Public forecast

Using degrees Fahrenheit for public forecast. Weather courtesy of forecast.io.

METAR (pilot weather report)

Closest report is William R. Pogue Municipal Airport, 16.4 nm (30.4 km) ESE. Retrieved 2019/04/21 09:35 UTC (20 minutes ago):

KOWP 210935Z AUTO 17006KT 10SM CLR 17/10 A2988 RMK AO2 T01720099 PWINO

TAF (pilot weather forecast)

Closest forecast is Richard Lloyd Jones Jr Airport, 27.4 nm (50.8 km) ESE. Retrieved 2019/04/21 06:22 UTC (4 hours ago):

TAF KRVS 210520Z 2106/2206 19005KT P6SM SKC FM211500 18013G22KT P6SM BKN250 FM220100 18010G17KT P6SM BKN250